createdAt,value
2017-12-30T00:00:29.824Z,98910
2017-12-30T00:01:29.999Z,98905
2017-12-30T00:02:29.117Z,98919
2017-12-30T00:03:30.132Z,98916
2017-12-30T00:04:29.164Z,98910
2017-12-30T00:05:29.094Z,98910
2017-12-30T00:06:30.252Z,98908
2017-12-30T00:07:29.387Z,98916
2017-12-30T00:08:30.383Z,98905
2017-12-30T00:09:29.281Z,98915
2017-12-30T00:10:29.456Z,98915
2017-12-30T00:11:30.325Z,98918
2017-12-30T00:12:30.479Z,98912
2017-12-30T00:13:29.458Z,98926
2017-12-30T00:14:29.535Z,98924
2017-12-30T00:15:30.634Z,98920
2017-12-30T00:16:29.589Z,98918
2017-12-30T00:17:29.617Z,98931
2017-12-30T00:18:29.644Z,98915
2017-12-30T00:19:29.815Z,98914
2017-12-30T00:20:30.819Z,98918
2017-12-30T00:21:29.807Z,98919
2017-12-30T00:22:29.889Z,98917
2017-12-30T00:23:30.849Z,98920
2017-12-30T00:24:30.893Z,98914
2017-12-30T00:25:30.036Z,98920
2017-12-30T00:26:31.020Z,98928
2017-12-30T00:27:30.146Z,98921
2017-12-30T00:28:30.181Z,98912
2017-12-30T00:29:30.092Z,98919
2017-12-30T00:30:30.110Z,98917
2017-12-30T00:31:30.285Z,98917
2017-12-30T00:32:30.394Z,98916
2017-12-30T00:33:31.314Z,98925
2017-12-30T00:34:30.340Z,98922
2017-12-30T00:35:31.331Z,98932
2017-12-30T00:36:30.537Z,98921
2017-12-30T00:37:31.515Z,98923
2017-12-30T00:38:30.598Z,98924
2017-12-30T00:39:31.612Z,98921
2017-12-30T00:40:30.541Z,98917
2017-12-30T00:41:30.696Z,98914
2017-12-30T00:42:30.703Z,98918
2017-12-30T00:43:30.842Z,98915
2017-12-30T00:44:30.880Z,98923
2017-12-30T00:45:30.786Z,98919
2017-12-30T00:46:30.821Z,98929
2017-12-30T00:47:31.048Z,98924
2017-12-30T00:48:31.059Z,98929
2017-12-30T00:49:31.008Z,98918
2017-12-30T00:50:31.205Z,98923
2017-12-30T00:51:31.231Z,98924
2017-12-30T00:53:31.256Z,98931
2017-12-30T00:54:31.373Z,98920
2017-12-30T00:55:32.238Z,98932
2017-12-30T00:56:31.471Z,98929
2017-12-30T00:57:31.552Z,98930
2017-12-30T00:58:31.631Z,98929
2017-12-30T00:59:31.662Z,98928
2017-12-30T01:00:31.587Z,98927
2017-12-30T01:01:31.617Z,98930
2017-12-30T01:02:31.760Z,98932
2017-12-30T01:03:31.795Z,98936
2017-12-30T01:04:31.834Z,98929
2017-12-30T01:05:32.902Z,98920
2017-12-30T01:06:31.906Z,98927
2017-12-30T01:07:32.987Z,98933
2017-12-30T01:08:33.055Z,98936
2017-12-30T01:09:32.090Z,98929
2017-12-30T01:10:33.075Z,98936
2017-12-30T01:11:32.134Z,98934
2017-12-30T01:12:32.021Z,98924
2017-12-30T01:13:32.195Z,98934
2017-12-30T01:14:32.291Z,98931
2017-12-30T01:15:33.280Z,98929
2017-12-30T01:16:32.313Z,98931
2017-12-30T01:17:32.416Z,98924
2017-12-30T01:18:33.405Z,98928
2017-12-30T01:19:32.374Z,98936
2017-12-30T01:20:32.380Z,98938
2017-12-30T01:21:33.449Z,98935
2017-12-30T01:22:33.506Z,98938
2017-12-30T01:23:33.536Z,98945
2017-12-30T01:24:33.515Z,98945
2017-12-30T01:25:33.616Z,98946
2017-12-30T01:26:32.727Z,98946
2017-12-30T01:27:33.764Z,98954
2017-12-30T01:28:32.714Z,98951
2017-12-30T01:29:32.810Z,98958
2017-12-30T01:30:32.870Z,98945
2017-12-30T01:31:32.895Z,98947
2017-12-30T01:32:33.950Z,98949
2017-12-30T01:33:32.879Z,98952
2017-12-30T01:34:34.033Z,98954
2017-12-30T01:35:33.034Z,98949
2017-12-30T01:36:33.097Z,98940
2017-12-30T01:37:33.235Z,98944
2017-12-30T01:38:33.285Z,98940
2017-12-30T01:39:34.211Z,98944
2017-12-30T01:40:33.359Z,98940
2017-12-30T01:41:33.281Z,98939
2017-12-30T01:42:34.429Z,98937
2017-12-30T01:43:33.440Z,98937
2017-12-30T01:44:34.401Z,98941
2017-12-30T01:45:33.555Z,98937
2017-12-30T01:46:34.549Z,98942
2017-12-30T01:47:34.624Z,98940
2017-12-30T01:48:33.752Z,98933
2017-12-30T01:49:33.758Z,98942
2017-12-30T01:50:34.760Z,98936
2017-12-30T01:51:34.807Z,98933
2017-12-30T01:52:33.781Z,98929
2017-12-30T01:53:33.863Z,98937
2017-12-30T01:54:33.927Z,98932
2017-12-30T01:55:33.852Z,98930
2017-12-30T01:56:34.003Z,98931
2017-12-30T01:57:33.990Z,98926
2017-12-30T01:58:34.069Z,98920
2017-12-30T01:59:34.111Z,98921
2017-12-30T02:00:34.148Z,98924
2017-12-30T02:01:34.305Z,98918
2017-12-30T02:02:34.246Z,98920
2017-12-30T02:03:35.284Z,98921
2017-12-30T02:04:34.381Z,98918
2017-12-30T02:05:34.555Z,98918
2017-12-30T02:06:35.462Z,98925
2017-12-30T02:07:34.531Z,98912
2017-12-30T02:08:35.570Z,98915
2017-12-30T02:09:35.646Z,98919
2017-12-30T02:10:34.710Z,98921
2017-12-30T02:11:34.769Z,98917
2017-12-30T02:12:34.908Z,98919
2017-12-30T02:13:35.876Z,98914
2017-12-30T02:14:35.118Z,98916
2017-12-30T02:15:35.993Z,98917
2017-12-30T02:16:34.996Z,98912
2017-12-30T02:17:35.156Z,98911
2017-12-30T02:18:36.224Z,98908
2017-12-30T02:19:35.186Z,98901
2017-12-30T02:20:36.229Z,98898
2017-12-30T02:21:35.302Z,98901
2017-12-30T02:22:36.427Z,98898
2017-12-30T02:23:35.575Z,98890
2017-12-30T02:24:35.496Z,98896
2017-12-30T02:25:35.690Z,98905
2017-12-30T02:26:35.794Z,98900
2017-12-30T02:27:36.696Z,98894
2017-12-30T02:28:35.789Z,98894
2017-12-30T02:29:36.944Z,98889
2017-12-30T02:30:36.038Z,98879
2017-12-30T02:31:36.134Z,98883
2017-12-30T02:32:36.070Z,98879
2017-12-30T02:33:37.250Z,98882
2017-12-30T02:34:36.327Z,98886
2017-12-30T02:35:36.342Z,98885
2017-12-30T02:36:37.294Z,98874
2017-12-30T02:37:37.375Z,98887
2017-12-30T02:38:36.435Z,98887
2017-12-30T02:39:36.451Z,98875
2017-12-30T02:40:36.462Z,98889
2017-12-30T02:41:36.603Z,98890
2017-12-30T02:42:37.574Z,98888
2017-12-30T02:43:36.598Z,98882
2017-12-30T02:44:36.594Z,98886
2017-12-30T02:45:36.742Z,98883
2017-12-30T02:46:37.610Z,98874
2017-12-30T02:47:37.748Z,98876
2017-12-30T02:48:36.818Z,98875
2017-12-30T02:49:37.878Z,98870
2017-12-30T02:50:37.954Z,98874
2017-12-30T02:51:37.043Z,98867
2017-12-30T02:52:37.053Z,98874
2017-12-30T02:53:38.144Z,98873
2017-12-30T02:54:37.220Z,98866
2017-12-30T02:55:37.208Z,98870
2017-12-30T02:56:38.245Z,98867
2017-12-30T02:57:37.379Z,98859
2017-12-30T02:58:37.377Z,98864
2017-12-30T02:59:37.410Z,98860
2017-12-30T03:00:37.606Z,98848
2017-12-30T03:01:37.601Z,98846
2017-12-30T03:02:38.730Z,98846
2017-12-30T03:03:37.692Z,98845
2017-12-30T03:04:37.763Z,98832
2017-12-30T03:05:38.890Z,98832
2017-12-30T03:06:37.824Z,98826
2017-12-30T03:07:37.966Z,98828
2017-12-30T03:08:37.865Z,98829
2017-12-30T03:09:38.071Z,98823
2017-12-30T03:10:37.979Z,98830
2017-12-30T03:11:39.169Z,98826
2017-12-30T03:12:39.239Z,98837
2017-12-30T03:13:38.147Z,98831
2017-12-30T03:14:39.330Z,98835
2017-12-30T03:15:39.370Z,98841
2017-12-30T03:16:38.454Z,98842
2017-12-30T03:17:38.378Z,98842
2017-12-30T03:18:39.537Z,98842
2017-12-30T03:19:38.640Z,98847
2017-12-30T03:20:38.609Z,98839
2017-12-30T03:21:38.730Z,98827
2017-12-30T03:22:39.801Z,98826
2017-12-30T03:23:38.797Z,98832
2017-12-30T03:24:38.839Z,98826
2017-12-30T03:25:38.970Z,98830
2017-12-30T03:26:40.013Z,98816
2017-12-30T03:27:39.126Z,98833
2017-12-30T03:28:39.108Z,98832
2017-12-30T03:29:39.266Z,98831
2017-12-30T03:30:39.344Z,98835
2017-12-30T03:31:40.297Z,98829
2017-12-30T03:32:39.459Z,98834
2017-12-30T03:33:40.448Z,98836
2017-12-30T03:34:39.364Z,98836
2017-12-30T03:35:40.342Z,98829
2017-12-30T03:36:39.465Z,98828
2017-12-30T03:37:40.513Z,98830
2017-12-30T03:38:39.517Z,98826
2017-12-30T03:39:40.445Z,98825
2017-12-30T03:40:39.498Z,98818
2017-12-30T03:41:39.496Z,98823
2017-12-30T03:42:40.574Z,98818
2017-12-30T03:43:40.585Z,98825
2017-12-30T03:44:40.576Z,98811
2017-12-30T03:45:39.749Z,98819
2017-12-30T03:46:39.816Z,98807
2017-12-30T03:47:39.760Z,98819
2017-12-30T03:48:39.840Z,98805
2017-12-30T03:49:39.891Z,98811
2017-12-30T03:50:39.795Z,98812
2017-12-30T03:51:41.000Z,98813
2017-12-30T03:52:41.023Z,98813
2017-12-30T03:53:41.056Z,98815
2017-12-30T03:54:40.054Z,98811
2017-12-30T03:55:40.139Z,98813
2017-12-30T03:56:40.163Z,98814
2017-12-30T03:57:40.240Z,98808
2017-12-30T03:58:40.263Z,98810
2017-12-30T03:59:41.223Z,98800
2017-12-30T04:00:40.347Z,98804
2017-12-30T04:01:40.538Z,98807
2017-12-30T04:02:41.553Z,98809
2017-12-30T04:03:40.512Z,98806
2017-12-30T04:04:41.544Z,98807
2017-12-30T04:05:41.679Z,98804
2017-12-30T04:06:40.764Z,98799
2017-12-30T04:07:40.668Z,98798
2017-12-30T04:08:41.823Z,98789
2017-12-30T04:09:40.870Z,98793
2017-12-30T04:10:40.882Z,98795
2017-12-30T04:11:40.871Z,98792
2017-12-30T04:12:41.969Z,98799
2017-12-30T04:13:40.910Z,98801
2017-12-30T04:14:40.971Z,98803
2017-12-30T04:15:41.031Z,98804
2017-12-30T04:16:41.011Z,98799
2017-12-30T04:17:41.078Z,98797
2017-12-30T04:18:41.088Z,98794
2017-12-30T04:19:42.099Z,98792
2017-12-30T04:20:42.259Z,98797
2017-12-30T04:21:42.220Z,98796
2017-12-30T04:22:42.433Z,98799
2017-12-30T04:23:41.413Z,98793
2017-12-30T04:24:42.461Z,98794
2017-12-30T04:25:41.693Z,98782
2017-12-30T04:26:41.752Z,98782
2017-12-30T04:27:42.822Z,98786
2017-12-30T04:28:42.770Z,98788
2017-12-30T04:29:42.966Z,98794
2017-12-30T04:30:42.905Z,98788
2017-12-30T04:31:43.111Z,98787
2017-12-30T04:32:43.208Z,98789
2017-12-30T04:33:42.183Z,98791
2017-12-30T04:34:42.362Z,98799
2017-12-30T04:35:42.272Z,98799
2017-12-30T04:36:42.402Z,98803
2017-12-30T04:37:42.407Z,98805
2017-12-30T04:38:43.518Z,98803
2017-12-30T04:39:42.631Z,98791
2017-12-30T04:40:42.601Z,98802
2017-12-30T04:41:43.564Z,98799
2017-12-30T04:42:42.689Z,98799
2017-12-30T04:43:42.755Z,98801
2017-12-30T04:44:42.788Z,98798
2017-12-30T04:45:42.923Z,98791
2017-12-30T04:46:42.825Z,98797
2017-12-30T04:47:44.012Z,98792
2017-12-30T04:48:44.035Z,98798
2017-12-30T04:49:44.091Z,98800
2017-12-30T04:50:43.036Z,98799
2017-12-30T04:51:44.206Z,98792
2017-12-30T04:52:44.265Z,98800
2017-12-30T04:53:43.208Z,98799
2017-12-30T04:54:43.242Z,98790
2017-12-30T04:55:43.286Z,98796
2017-12-30T04:56:43.294Z,98796
2017-12-30T04:57:43.367Z,98800
2017-12-30T04:58:44.491Z,98797
2017-12-30T04:59:43.585Z,98804
2017-12-30T05:00:44.600Z,98802
2017-12-30T05:01:43.649Z,98803
2017-12-30T05:02:43.591Z,98798
2017-12-30T05:03:44.587Z,98799
2017-12-30T05:04:44.651Z,98798
2017-12-30T05:05:43.838Z,98797
2017-12-30T05:06:43.881Z,98801
2017-12-30T05:07:44.874Z,98789
2017-12-30T05:08:43.958Z,98796
2017-12-30T05:09:45.065Z,98783
2017-12-30T05:10:44.036Z,98789
2017-12-30T05:11:45.085Z,98782
2017-12-30T05:12:45.307Z,98784
2017-12-30T05:13:44.314Z,98772
2017-12-30T05:14:44.379Z,98786
2017-12-30T05:15:44.419Z,98786
2017-12-30T05:16:45.406Z,98784
2017-12-30T05:17:44.399Z,98787
2017-12-30T05:18:44.524Z,98793
2017-12-30T05:19:45.669Z,98793
2017-12-30T05:20:44.647Z,98793
2017-12-30T05:21:44.793Z,98788
2017-12-30T05:22:44.816Z,98780
2017-12-30T05:23:44.883Z,98777
2017-12-30T05:24:44.961Z,98776
2017-12-30T05:25:45.037Z,98776
2017-12-30T05:26:45.091Z,98778
2017-12-30T05:27:45.241Z,98768
2017-12-30T05:28:46.291Z,98777
2017-12-30T05:29:45.378Z,98778
2017-12-30T05:30:45.466Z,98781
2017-12-30T05:31:45.547Z,98780
2017-12-30T05:32:46.506Z,98788
2017-12-30T05:33:46.591Z,98788
2017-12-30T05:34:45.758Z,98779
2017-12-30T05:35:46.662Z,98792
2017-12-30T05:36:45.707Z,98788
2017-12-30T05:37:46.701Z,98796
2017-12-30T05:38:45.924Z,98798
2017-12-30T05:39:46.794Z,98799
2017-12-30T05:40:46.837Z,98799
2017-12-30T05:41:45.888Z,98801
2017-12-30T05:42:46.029Z,98798
2017-12-30T05:43:46.090Z,98796
2017-12-30T05:44:46.189Z,98802
2017-12-30T05:45:47.254Z,98790
2017-12-30T05:46:47.290Z,98789
2017-12-30T05:47:46.324Z,98795
2017-12-30T05:48:47.214Z,98791
2017-12-30T05:49:46.293Z,98796
2017-12-30T05:50:47.440Z,98798
2017-12-30T05:51:46.476Z,98800
2017-12-30T05:52:46.546Z,98805
2017-12-30T05:53:47.521Z,98810
2017-12-30T05:54:46.527Z,98804
2017-12-30T05:55:47.547Z,98804
2017-12-30T05:56:46.632Z,98788
2017-12-30T05:57:46.804Z,98783
2017-12-30T05:58:46.814Z,98781
2017-12-30T05:59:46.859Z,98773
2017-12-30T06:00:46.846Z,98775
2017-12-30T06:01:48.030Z,98772
2017-12-30T06:02:47.111Z,98765
2017-12-30T06:03:47.125Z,98769
2017-12-30T06:04:47.089Z,98767
2017-12-30T06:05:47.171Z,98759
2017-12-30T06:06:48.255Z,98747
2017-12-30T06:07:47.220Z,98759
2017-12-30T06:08:47.387Z,98755
2017-12-30T06:09:48.405Z,98756
2017-12-30T06:10:47.370Z,98754
2017-12-30T06:11:47.399Z,98756
2017-12-30T06:12:47.407Z,98752
2017-12-30T06:13:47.448Z,98753
2017-12-30T06:14:48.488Z,98748
2017-12-30T06:15:47.673Z,98751
2017-12-30T06:16:48.625Z,98742
2017-12-30T06:17:48.586Z,98752
2017-12-30T06:18:47.662Z,98752
2017-12-30T06:19:48.807Z,98750
2017-12-30T06:20:47.821Z,98742
2017-12-30T06:21:48.906Z,98741
2017-12-30T06:22:48.849Z,98745
2017-12-30T06:23:48.039Z,98735
2017-12-30T06:24:48.932Z,98721
2017-12-30T06:25:49.121Z,98723
2017-12-30T06:26:48.107Z,98725
2017-12-30T06:27:48.159Z,98717
2017-12-30T06:28:48.182Z,98721
2017-12-30T06:29:48.197Z,98721
2017-12-30T06:30:48.419Z,98708
2017-12-30T06:31:48.396Z,98716
2017-12-30T06:32:49.277Z,98711
2017-12-30T06:33:48.426Z,98693
2017-12-30T06:34:49.427Z,98687
2017-12-30T06:35:48.485Z,98686
2017-12-30T06:36:49.366Z,98673
2017-12-30T06:37:48.425Z,98679
2017-12-30T06:38:48.582Z,98672
2017-12-30T06:39:49.621Z,98679
2017-12-30T06:40:49.565Z,98676
2017-12-30T06:41:49.735Z,98660
2017-12-30T06:42:49.794Z,98659
2017-12-30T06:43:48.759Z,98662
2017-12-30T06:44:48.866Z,98655
2017-12-30T06:45:49.872Z,98671
2017-12-30T06:46:49.800Z,98676
2017-12-30T06:47:48.888Z,98684
2017-12-30T06:48:50.004Z,98678
2017-12-30T06:49:50.056Z,98676
2017-12-30T06:50:49.025Z,98675
2017-12-30T06:51:49.124Z,98673
2017-12-30T06:52:49.073Z,98670
2017-12-30T06:53:49.143Z,98664
2017-12-30T06:54:50.298Z,98661
2017-12-30T06:55:49.247Z,98650
2017-12-30T06:56:49.441Z,98647
2017-12-30T06:57:50.332Z,98649
2017-12-30T06:58:49.384Z,98636
2017-12-30T06:59:49.524Z,98641
2017-12-30T07:00:49.483Z,98630
2017-12-30T07:01:49.627Z,98617
2017-12-30T07:02:50.706Z,98606
2017-12-30T07:03:49.719Z,98585
2017-12-30T07:04:49.841Z,98579
2017-12-30T07:05:49.846Z,98571
2017-12-30T07:06:49.995Z,98567
2017-12-30T07:07:49.967Z,98578
2017-12-30T07:08:49.984Z,98577
2017-12-30T07:09:51.076Z,98595
2017-12-30T07:10:51.165Z,98599
2017-12-30T07:11:51.079Z,98604
2017-12-30T07:12:50.152Z,98617
2017-12-30T07:13:50.242Z,98617
2017-12-30T07:14:50.219Z,98625
2017-12-30T07:15:50.306Z,98625
2017-12-30T07:16:50.459Z,98618
2017-12-30T07:17:51.506Z,98603
2017-12-30T07:18:50.626Z,98580
2017-12-30T07:19:50.713Z,98580
2017-12-30T07:20:51.555Z,98574
2017-12-30T07:21:51.655Z,98561
2017-12-30T07:22:50.708Z,98548
2017-12-30T07:23:50.811Z,98537
2017-12-30T07:24:50.862Z,98541
2017-12-30T07:25:50.853Z,98543
2017-12-30T07:26:51.044Z,98542
2017-12-30T07:27:51.010Z,98552
2017-12-30T07:28:51.060Z,98549
2017-12-30T07:29:51.104Z,98549
2017-12-30T07:30:51.159Z,98537
2017-12-30T07:31:52.282Z,98537
2017-12-30T07:32:52.238Z,98524
2017-12-30T07:33:51.287Z,98520
2017-12-30T07:34:52.411Z,98519
2017-12-30T07:35:51.381Z,98517
2017-12-30T07:36:52.448Z,98515
2017-12-30T07:37:51.550Z,98517
2017-12-30T07:38:52.651Z,98510
2017-12-30T07:39:51.571Z,98514
2017-12-30T07:40:52.720Z,98501
2017-12-30T07:41:51.750Z,98505
2017-12-30T07:42:51.823Z,98493
2017-12-30T07:43:51.787Z,98501
2017-12-30T07:44:52.934Z,98489
2017-12-30T07:45:52.986Z,98494
2017-12-30T07:46:51.968Z,98497
2017-12-30T07:47:52.047Z,98501
2017-12-30T07:48:52.209Z,98490
2017-12-30T07:49:52.162Z,98484
2017-12-30T07:50:53.170Z,98493
2017-12-30T07:51:52.232Z,98497
2017-12-30T07:52:53.314Z,98509
2017-12-30T07:53:52.304Z,98503
2017-12-30T07:54:52.436Z,98489
2017-12-30T07:55:52.517Z,98497
2017-12-30T07:56:52.470Z,98491
2017-12-30T07:57:52.562Z,98480
2017-12-30T07:58:53.691Z,98472
2017-12-30T07:59:52.808Z,98469
2017-12-30T08:00:52.771Z,98467
2017-12-30T08:01:53.869Z,98447
2017-12-30T08:02:52.883Z,98448
2017-12-30T08:03:53.000Z,98443
2017-12-30T08:04:54.030Z,98441
2017-12-30T08:05:54.098Z,98431
2017-12-30T08:06:53.244Z,98428
2017-12-30T08:07:53.216Z,98422
2017-12-30T08:08:54.366Z,98405
2017-12-30T08:09:53.442Z,98413
2017-12-30T08:10:53.365Z,98411
2017-12-30T08:11:53.421Z,98404
2017-12-30T08:12:53.505Z,98403
2017-12-30T08:13:53.658Z,98399
2017-12-30T08:14:54.721Z,98397
2017-12-30T08:15:53.658Z,98400
2017-12-30T08:16:54.787Z,98394
2017-12-30T08:17:53.723Z,98390
2017-12-30T08:18:54.832Z,98376
2017-12-30T08:19:53.757Z,98377
2017-12-30T08:20:53.865Z,98370
2017-12-30T08:21:54.854Z,98359
2017-12-30T08:22:54.964Z,98358
2017-12-30T08:23:54.925Z,98359
2017-12-30T08:24:54.029Z,98356
2017-12-30T08:25:54.098Z,98347
2017-12-30T08:26:54.273Z,98350
2017-12-30T08:27:54.371Z,98344
2017-12-30T08:28:54.378Z,98345
2017-12-30T08:29:54.385Z,98344
2017-12-30T08:30:55.300Z,98334
2017-12-30T08:31:54.351Z,98335
2017-12-30T08:32:54.358Z,98333
2017-12-30T08:33:54.557Z,98331
2017-12-30T08:34:54.517Z,98325
2017-12-30T08:35:55.621Z,98316
2017-12-30T08:36:54.559Z,98313
2017-12-30T08:37:54.644Z,98309
2017-12-30T08:38:55.789Z,98306
2017-12-30T08:39:54.732Z,98298
2017-12-30T08:40:55.922Z,98294
2017-12-30T08:41:54.894Z,98284
2017-12-30T08:42:55.846Z,98288
2017-12-30T08:43:54.941Z,98280
2017-12-30T08:44:55.032Z,98280
2017-12-30T08:46:56.265Z,98275
2017-12-30T08:47:56.342Z,98275
2017-12-30T08:48:55.286Z,98273
2017-12-30T08:49:55.339Z,98262
2017-12-30T08:50:55.449Z,98243
2017-12-30T08:51:55.360Z,98248
2017-12-30T08:52:56.484Z,98245
2017-12-30T08:53:56.552Z,98241
2017-12-30T08:54:55.620Z,98240
2017-12-30T08:55:55.533Z,98229
2017-12-30T08:56:56.606Z,98226
2017-12-30T08:57:55.712Z,98228
2017-12-30T08:58:55.741Z,98219
2017-12-30T08:59:55.712Z,98212
2017-12-30T09:00:55.778Z,98211
2017-12-30T09:01:55.816Z,98208
2017-12-30T09:02:56.793Z,98208
2017-12-30T09:03:55.893Z,98213
2017-12-30T09:04:56.048Z,98207
2017-12-30T09:05:56.048Z,98203
2017-12-30T09:06:56.128Z,98211
2017-12-30T09:07:56.188Z,98209
2017-12-30T09:08:57.271Z,98217
2017-12-30T09:09:56.226Z,98212
2017-12-30T09:10:56.354Z,98184
2017-12-30T09:11:56.287Z,98183
2017-12-30T09:12:57.351Z,98168
2017-12-30T09:13:57.380Z,98147
2017-12-30T09:14:56.518Z,98172
2017-12-30T09:15:57.603Z,98190
2017-12-30T09:16:56.693Z,98219
2017-12-30T09:17:57.763Z,98223
2017-12-30T09:18:57.680Z,98214
2017-12-30T09:19:56.812Z,98204
2017-12-30T09:20:56.967Z,98171
2017-12-30T09:21:57.972Z,98173
2017-12-30T09:22:56.963Z,98180
2017-12-30T09:23:57.005Z,98197
2017-12-30T09:24:56.942Z,98214
2017-12-30T09:25:57.102Z,98185
2017-12-30T09:26:57.044Z,98158
2017-12-30T09:27:57.098Z,98161
2017-12-30T09:28:57.203Z,98149
2017-12-30T09:29:57.206Z,98147
2017-12-30T09:30:57.246Z,98145
2017-12-30T09:31:58.268Z,98139
2017-12-30T09:32:57.344Z,98173
2017-12-30T09:33:57.403Z,98182
2017-12-30T09:34:58.413Z,98173
2017-12-30T09:35:57.543Z,98189
2017-12-30T09:36:57.599Z,98150
2017-12-30T09:37:57.782Z,98157
2017-12-30T09:38:57.868Z,98174
2017-12-30T09:39:57.828Z,98207
2017-12-30T09:40:57.910Z,98203
2017-12-30T09:41:57.993Z,98195
2017-12-30T09:42:59.110Z,98193
2017-12-30T09:43:58.072Z,98173
2017-12-30T09:44:58.121Z,98181
2017-12-30T09:45:58.150Z,98187
2017-12-30T09:46:58.203Z,98185
2017-12-30T09:47:58.378Z,98196
2017-12-30T09:48:58.385Z,98201
2017-12-30T09:49:59.438Z,98217
2017-12-30T09:50:58.543Z,98218
2017-12-30T09:51:59.697Z,98218
2017-12-30T09:52:58.757Z,98207
2017-12-30T09:53:58.667Z,98172
2017-12-30T09:54:59.784Z,98178
2017-12-30T09:55:59.882Z,98161
2017-12-30T09:56:58.819Z,98187
2017-12-30T09:57:58.977Z,98195
2017-12-30T09:58:59.051Z,98215
2017-12-30T09:59:59.110Z,98211
2017-12-30T10:00:59.086Z,98213
2017-12-30T10:01:59.203Z,98221
2017-12-30T10:02:59.238Z,98201
2017-12-30T10:04:00.420Z,98204
2017-12-30T10:04:59.357Z,98191
2017-12-30T10:06:00.451Z,98195
2017-12-30T10:07:00.516Z,98180
2017-12-30T10:08:00.569Z,98201
2017-12-30T10:08:59.559Z,98193
2017-12-30T10:10:00.572Z,98190
2017-12-30T10:10:59.638Z,98173
2017-12-30T10:11:59.813Z,98157
2017-12-30T10:12:59.822Z,98161
2017-12-30T10:13:59.876Z,98137
2017-12-30T10:14:59.946Z,98158
2017-12-30T10:16:01.023Z,98149
2017-12-30T10:17:00.127Z,98158
2017-12-30T10:18:00.153Z,98158
2017-12-30T10:19:01.359Z,98152
2017-12-30T10:20:01.430Z,98144
2017-12-30T10:21:01.366Z,98148
2017-12-30T10:22:00.559Z,98135
2017-12-30T10:23:01.618Z,98127
2017-12-30T10:24:00.521Z,98123
2017-12-30T10:25:01.587Z,98116
2017-12-30T10:26:01.718Z,98132
2017-12-30T10:27:00.812Z,98138
2017-12-30T10:28:01.853Z,98140
2017-12-30T10:29:01.808Z,98140
2017-12-30T10:30:01.037Z,98145
2017-12-30T10:31:00.919Z,98137
2017-12-30T10:32:00.936Z,98139
2017-12-30T10:33:00.928Z,98151
2017-12-30T10:34:01.047Z,98151
2017-12-30T10:35:01.086Z,98146
2017-12-30T10:36:01.213Z,98153
2017-12-30T10:37:01.114Z,98147
2017-12-30T10:38:01.268Z,98140
2017-12-30T10:39:02.243Z,98144
2017-12-30T10:40:01.224Z,98136
2017-12-30T10:41:02.356Z,98147
2017-12-30T10:42:01.373Z,98147
2017-12-30T10:43:01.420Z,98162
2017-12-30T10:44:01.483Z,98154
2017-12-30T10:45:01.564Z,98156
2017-12-30T10:46:01.585Z,98154
2017-12-30T10:47:01.717Z,98154
2017-12-30T10:48:01.746Z,98155
2017-12-30T10:49:02.612Z,98148
2017-12-30T10:50:01.779Z,98158
2017-12-30T10:51:02.715Z,98159
2017-12-30T10:52:01.895Z,98159
2017-12-30T10:53:02.758Z,98162
2017-12-30T10:54:01.970Z,98164
2017-12-30T10:55:01.936Z,98152
2017-12-30T10:56:03.042Z,98148
2017-12-30T10:57:02.141Z,98153
2017-12-30T10:58:02.143Z,98168
2017-12-30T10:59:02.132Z,98169
2017-12-30T11:00:02.216Z,98181
2017-12-30T11:01:03.316Z,98186
2017-12-30T11:02:03.310Z,98176
2017-12-30T11:03:02.327Z,98175
2017-12-30T11:04:02.417Z,98178
2017-12-30T11:05:02.497Z,98189
2017-12-30T11:06:02.460Z,98180
2017-12-30T11:07:03.446Z,98178
2017-12-30T11:08:03.619Z,98182
2017-12-30T11:09:02.552Z,98170
2017-12-30T11:10:02.711Z,98173
2017-12-30T11:11:02.596Z,98184
2017-12-30T11:12:02.679Z,98182
2017-12-30T11:13:03.808Z,98170
2017-12-30T11:14:02.918Z,98172
2017-12-30T11:15:03.955Z,98181
2017-12-30T11:16:03.937Z,98192
2017-12-30T11:17:04.113Z,98197
2017-12-30T11:18:03.224Z,98197
2017-12-30T11:19:04.181Z,98199
2017-12-30T11:20:03.259Z,98193
2017-12-30T11:21:03.296Z,98198
2017-12-30T11:22:03.399Z,98194
2017-12-30T11:23:03.468Z,98188
2017-12-30T11:24:03.493Z,98180
2017-12-30T11:25:03.589Z,98193
2017-12-30T11:26:04.691Z,98186
2017-12-30T11:27:03.627Z,98182
2017-12-30T11:28:03.627Z,98180
2017-12-30T11:29:03.667Z,98182
2017-12-30T11:30:03.743Z,98179
2017-12-30T11:31:03.826Z,98190
2017-12-30T11:32:03.990Z,98177
2017-12-30T11:33:05.083Z,98187
2017-12-30T11:34:04.993Z,98181
2017-12-30T11:35:04.037Z,98180
2017-12-30T11:36:05.188Z,98186
2017-12-30T11:37:04.155Z,98187
2017-12-30T11:38:05.206Z,98187
2017-12-30T11:39:04.306Z,98185
2017-12-30T11:40:04.335Z,98188
2017-12-30T11:41:05.465Z,98188
2017-12-30T11:42:05.440Z,98199
2017-12-30T11:43:05.630Z,98184
2017-12-30T11:44:04.558Z,98186
2017-12-30T11:45:04.595Z,98184
2017-12-30T11:46:05.727Z,98190
2017-12-30T11:47:04.720Z,98195
2017-12-30T11:48:04.830Z,98193
2017-12-30T11:49:04.849Z,98189
2017-12-30T11:50:04.932Z,98194
2017-12-30T11:51:06.071Z,98199
2017-12-30T11:52:06.203Z,98203
2017-12-30T11:53:06.085Z,98199
2017-12-30T11:54:06.261Z,98198
2017-12-30T11:55:05.261Z,98188
2017-12-30T11:56:05.315Z,98195
2017-12-30T11:57:05.332Z,98195
2017-12-30T11:58:05.452Z,98195
2017-12-30T11:59:06.454Z,98198
2017-12-30T12:00:05.491Z,98203
2017-12-30T12:01:05.456Z,98191
2017-12-30T12:02:05.523Z,98198
2017-12-30T12:03:05.699Z,98198
2017-12-30T12:04:06.692Z,98198
2017-12-30T12:05:05.659Z,98199
2017-12-30T12:06:06.685Z,98207
2017-12-30T12:07:06.803Z,98207
2017-12-30T12:08:05.922Z,98203
2017-12-30T12:09:06.779Z,98209
2017-12-30T12:10:05.831Z,98199
2017-12-30T12:11:06.795Z,98193
2017-12-30T12:12:05.849Z,98197
2017-12-30T12:13:06.023Z,98198
2017-12-30T12:14:06.005Z,98197
2017-12-30T12:15:06.098Z,98186
2017-12-30T12:16:06.054Z,98188
2017-12-30T12:17:07.085Z,98198
2017-12-30T12:18:07.278Z,98189
2017-12-30T12:19:07.331Z,98196
2017-12-30T12:20:06.382Z,98186
2017-12-30T12:21:06.353Z,98196
2017-12-30T12:22:06.406Z,98192
2017-12-30T12:23:06.412Z,98199
2017-12-30T12:24:06.591Z,98201
2017-12-30T12:25:06.510Z,98194
2017-12-30T12:26:06.679Z,98200
2017-12-30T12:27:07.723Z,98206
2017-12-30T12:28:06.849Z,98217
2017-12-30T12:29:06.804Z,98211
2017-12-30T12:30:06.949Z,98210
2017-12-30T12:31:06.961Z,98209
2017-12-30T12:32:07.821Z,98201
2017-12-30T12:33:07.938Z,98208
2017-12-30T12:34:06.956Z,98211
2017-12-30T12:35:08.002Z,98220
2017-12-30T12:36:07.217Z,98210
2017-12-30T12:37:08.284Z,98208
2017-12-30T12:38:07.351Z,98219
2017-12-30T12:39:08.242Z,98223
2017-12-30T12:40:08.251Z,98217
2017-12-30T12:41:07.463Z,98215
2017-12-30T12:42:08.460Z,98217
2017-12-30T12:43:08.537Z,98221
2017-12-30T12:44:07.476Z,98210
2017-12-30T12:45:07.673Z,98208
2017-12-30T12:46:08.656Z,98211
2017-12-30T12:47:07.655Z,98220
2017-12-30T12:48:08.685Z,98230
2017-12-30T12:49:07.816Z,98223
2017-12-30T12:50:07.964Z,98225
2017-12-30T12:51:07.906Z,98231
2017-12-30T12:52:07.914Z,98249
2017-12-30T12:53:07.948Z,98236
2017-12-30T12:54:09.046Z,98231
2017-12-30T12:55:07.999Z,98247